x

9449880 - Friday Harbor, Wa (frdw1) Weather Station

4:36 - Wed 28th Jun 2017 All times are PDT. -7 hours from GMT.

  • Wind
    5mph, 9mph gusts
  • Sea Temp 53°f
  • Ar Temp 63°f
  • Sea Pressure 1016.9mb
  • 9449880 - Friday Harbor, Wa
  • 9449880 - Friday Harbor, Wa

More Historic Weather Station data

Upgrade to MSW Pro to gain access to the past 30 days of data for over 8000 Wavebouys and Weather Stations around the globe.

Join Pro

Comparision Forecast

View Surf forecast
   
Qua 06/28 4:36 5 9 mph 1016.9mb 53f 63f
4:30 7 10 mph 1016.9mb 53f 64f
4:24 8 10 mph 1016.9mb 53f 63f
4:18 7 13 mph 1016.9mb 53f 63f
4:12 6 8 mph 1016.9mb 53f 63f
4:06 7 10 mph 1017mb 53f 63f
4:00 8 10 mph 1017mb 53f 63f
3:36 7 11 mph 1017mb 53f 62f
3:30 9 11 mph 1017mb 53f 62f
3:24 9 11 mph 1017mb 53f 62f
3:18 9 10 mph 1017mb 53f 61f
3:12 7 9 mph 1017mb 53f 61f
3:06 6 9 mph 1017mb 53f 61f
3:00 6 7 mph 1017mb 53f 61f
2:36 7 9 mph 1017mb 53f 60f
2:30 7 9 mph 1017.1mb 53f 60f
2:24 8 9 mph 1017.1mb 53f 59f
2:18 8 9 mph 1017.1mb 53f 59f
2:12 8 11 mph 1017.2mb 53f 59f
2:06 8 10 mph 1017.2mb 53f 59f
2:00 8 10 mph 1017.3mb 53f 59f
1:36 5 7 mph 1017.3mb 53f 59f
1:30 6 7 mph 1017.4mb 53f 58f
1:24 6 8 mph 1017.5mb 53f 58f
1:18 6 9 mph 1017.4mb 53f 58f
1:12 5 8 mph 1017.4mb 53f 58f
1:06 7 9 mph 1017.4mb 52f 58f
1:00 8 10 mph 1017.4mb 52f 58f
12:36 8 10 mph 1017.4mb 52f 58f
12:30 8 9 mph 1017.4mb 52f 58f
12:24 8 9 mph 1017.4mb 52f 58f
12:18 8 9 mph 1017.3mb 52f 58f
12:12 6 8 mph 1017.4mb 52f 58f
12:06 6 7 mph 1017.3mb 52f 58f
12:00 6 10 mph 1017.3mb 51f 58f
11:36 8 10 mph 1017.2mb 51f 57f
11:30 7 11 mph 1017.2mb 51f 57f
11:24 9 11 mph 1017.2mb 51f 57f
11:18 8 10 mph 1017.2mb 51f 57f
11:12 5 7 mph 1017.1mb 51f 57f
11:06 6 9 mph 1017mb 51f 57f
11:00 6 9 mph 1016.9mb 51f 56f
10:36 2 3 mph 1016.8mb 51f 56f
10:30 2 3 mph 1016.9mb 51f 56f
10:24 2 3 mph 1016.9mb 51f 55f
10:18 3 5 mph 1016.9mb 51f 55f
10:12 3 5 mph 1016.9mb 51f 55f
10:06 2 3 mph 1016.9mb 51f 56f
10:00 1 2 mph 1016.9mb 51f 56f
8:36 5 6 mph 1016.5mb 51f 52f
8:30 5 7 mph 1016.5mb 51f 52f
8:24 6 7 mph 1016.4mb 51f 52f
8:18 5 6 mph 1016.4mb 51f 52f
8:12 5 6 mph 1016.4mb 51f 52f
8:06 5 6 mph 1016.3mb 51f 53f
8:00 3 3 mph 1016.2mb 51f 53f
7:36 1 2 mph 1016.1mb 51f 55f
7:30  -  1 mph 1016.1mb 51f 55f
7:24  -  2 mph 1016.2mb 51f 53f
7:18 1 1 mph 1016.2mb 51f 53f
7:12  -  2 mph 1016.2mb 51f 53f
7:06 1 2 mph 1016.2mb 51f 52f
7:00  -  2 mph 1016.1mb 51f 52f
6:36 2 3 mph 1015.9mb 51f 51f
6:30 2 3 mph 1015.9mb 51f 51f
6:24 1 2 mph 1015.9mb 51f 51f
6:18 1 5 mph 1015.8mb 51f 51f
6:12 3 6 mph 1015.7mb 51f 51f
6:06 5 5 mph 1015.7mb 51f 51f
6:00 2 3 mph 1015.6mb 51f 50f
5:36 2 3 mph 1015.4mb 51f 51f
5:30  -  1 mph 1015.4mb 51f 51f
5:24  -  1 mph 1015.3mb 51f 51f
5:18  -  1 mph 1015.3mb 51f 51f
5:12  -  1 mph 1015.3mb 51f 50f
5:06  -  2 mph 1015.2mb 51f 51f
5:00 1 2 mph 1015.2mb 51f 50f
4:36 1 3 mph 1015.2mb 51f 49f
4:30 2 2 mph 1015.1mb 51f 50f
4:24  -  2 mph 1015.1mb 51f 50f
4:18  -  2 mph 1015.1mb 51f 50f
4:12  -  2 mph 1015mb 51f 49f
4:06 1 2 mph 1015mb 51f 49f
4:00 2 2 mph 1015mb 51f 49f
3:36  -  2 mph 1014.8mb 51f 51f
3:30  -  1 mph 1014.8mb 51f 51f
3:24 2 3 mph 1014.8mb 51f 51f
3:18 3 5 mph 1014.8mb 51f 50f
3:12 3 3 mph 1014.7mb 51f 50f
3:06 3 3 mph 1014.7mb 51f 50f
3:00  -  1 mph 1014.7mb 51f 51f
2:36  -  1 mph 1014.6mb 51f 51f
2:30  -  1 mph 1014.6mb 51f 51f
2:24  -  1 mph 1014.6mb 51f 51f
2:18  -  1 mph 1014.6mb 51f 52f
2:12  -  1 mph 1014.6mb 51f 52f
2:06  -  1 mph 1014.6mb 51f 51f
2:00  -  3 mph 1014.6mb 51f 51f
1:36 1 3 mph 1014.6mb 51f 53f
1:30 2 3 mph 1014.5mb 51f 53f
1:24 1 2 mph 1014.4mb 51f 53f
1:18 1 2 mph 1014.4mb 51f 52f
1:12 1 2 mph 1014.4mb 51f 52f
1:06  -  1 mph 1014.4mb 51f 52f
1:00  -  1 mph 1014.4mb 51f 52f
12:36  -  1 mph 1014.4mb 51f 52f
12:30  -  2 mph 1014.4mb 51f 52f
12:24  -  2 mph 1014.4mb 51f 52f
12:18 1 3 mph 1014.4mb 51f 52f
12:12 2 3 mph 1014.4mb 51f 52f
12:06 2 2 mph 1014.4mb 51f 52f
12:00  -  2 mph 1014.4mb 51f 52f
Ter 06/27 11:36 1 1 mph 1014.5mb 51f 53f
11:30  -  2 mph 1014.5mb 51f 53f
11:24  -  1 mph 1014.5mb 51f 53f
11:18  -  1 mph 1014.5mb 51f 53f
11:12 1 2 mph 1014.5mb 51f 53f
11:06 1 3 mph 1014.4mb 51f 53f
11:00 2 3 mph 1014.5mb 51f 53f
10:36 5 6 mph 1014.6mb 51f 55f
10:30 5 6 mph 1014.6mb 51f 55f
10:24 5 6 mph 1014.6mb 51f 55f
10:18 6 9 mph 1014.6mb 51f 55f
10:12 8 9 mph 1014.6mb 51f 56f
10:06 8 9 mph 1014.7mb 51f 56f
10:00 9 13 mph 1014.7mb 51f 56f
9:36 6 8 mph 1014.5mb 51f 57f
9:30 5 6 mph 1014.5mb 51f 57f
9:24 5 7 mph 1014.5mb 51f 57f
9:18 6 7 mph 1014.4mb 51f 57f
9:12 6 7 mph 1014.4mb 51f 57f
9:06 5 6 mph 1014.5mb 51f 57f
9:00 6 8 mph 1014.5mb 51f 58f
8:36 6 7 mph 1014.6mb 51f 59f
8:30 7 8 mph 1014.6mb 51f 59f
8:24 7 9 mph 1014.7mb 51f 59f
8:18 6 8 mph 1014.6mb 51f 59f
8:12 8 9 mph 1014.7mb 51f 59f
8:06 8 9 mph 1014.7mb 51f 59f
8:00 8 10 mph 1014.7mb 51f 59f
7:36 7 9 mph 1014.7mb 51f 61f
7:30 8 10 mph 1014.7mb 51f 61f
7:24 9 10 mph 1014.8mb 51f 61f
7:18 9 10 mph 1014.8mb 51f 62f
7:12 8 11 mph 1014.8mb 51f 62f
7:06 9 10 mph 1014.9mb 51f 62f
7:00 9 11 mph 1014.9mb 51f 62f
6:36 8 9 mph 1015mb 51f 64f
6:30 3 5 mph 1014.9mb 51f 63f
6:24 2 3 mph 1015mb 51f 64f
6:18  -  2 mph 1015mb 51f 64f
6:12 1 2 mph 1015.1mb 51f 63f
6:06 2 3 mph 1015.1mb 51f 62f
6:00 2 3 mph 1015.1mb 51f 62f
5:36 7 8 mph 1015.2mb 51f 65f
5:30 5 7 mph 1015.3mb 51f 65f
5:24 5 6 mph 1015.3mb 51f 65f
5:18 5 6 mph 1015.3mb 51f 65f
5:12 2 3 mph 1015.4mb 51f 65f
5:06 2 3 mph 1015.5mb 51f 65f
5:00 2 3 mph 1015.5mb 52f 65f
4:54 2 3 mph 1015.6mb 52f 65f
4:48 2 3 mph 1015.6mb 52f 64f
4:36 2 5 mph 1015.7mb 53f 63f
4:30 3 6 mph 1015.8mb 53f 63f
4:24 3 6 mph 1015.9mb 53f 63f
4:18 3 6 mph 1015.9mb 53f 64f
4:12 3 5 mph 1016mb 53f 63f
4:06 5 6 mph 1016.1mb 53f 63f
4:00 5 6 mph 1016.1mb 53f 63f
3:54 5 6 mph 1016.2mb 53f 63f
3:48 6 7 mph 1016.2mb 53f 62f
3:36 7 8 mph 1016.4mb 52f 62f
3:30 7 9 mph 1016.4mb 52f 62f
3:24 5 8 mph 1016.5mb 52f 62f
3:18 5 8 mph 1016.6mb 52f 61f
3:12 6 7 mph 1016.6mb 52f 61f
3:06 6 9 mph 1016.7mb 52f 61f
3:00 7 8 mph 1016.8mb 52f 61f
2:54 6 8 mph 1016.9mb 53f 60f
2:48 6 7 mph 1017mb 53f 60f
2:36 8 10 mph 1017.1mb 52f 60f
2:30 7 10 mph 1017.1mb 52f 60f
2:24 7 8 mph 1017.2mb 52f 60f
2:18 7 10 mph 1017.3mb 52f 60f
2:12 8 10 mph 1017.4mb 53f 60f
2:06 8 10 mph 1017.4mb 53f 60f
2:00 8 11 mph 1017.4mb 53f 59f
1:54 9 10 mph 1017.5mb 53f 59f
1:48 9 11 mph 1017.5mb 53f 59f
1:36 8 10 mph 1017.5mb 53f 58f
1:30 7 10 mph 1017.6mb 53f 58f
1:24 8 9 mph 1017.6mb 53f 58f
1:18 7 9 mph 1017.7mb 53f 58f
1:12 8 10 mph 1017.7mb 53f 58f
1:06 8 10 mph 1017.8mb 52f 58f
1:00 8 10 mph 1017.8mb 52f 58f
12:54 7 8 mph 1017.9mb 52f 58f
12:48 8 9 mph 1017.9mb 52f 57f
12:36 2 7 mph 1017.9mb 52f 58f
12:30 2 3 mph 1017.9mb 52f 59f
12:24  -  3 mph 1017.9mb 52f 58f
12:18 2 3 mph 1017.9mb 52f 58f
12:12 2 8 mph 1018mb 52f 57f
12:06 3 7 mph 1018mb 51f 57f
12:00 3 5 mph 1017.9mb 51f 57f
11:54 3 6 mph 1017.9mb 51f 57f
11:48 2 5 mph 1017.9mb 51f 57f
11:36 2 5 mph 1017.9mb 52f 56f
11:30 3 7 mph 1017.9mb 52f 56f
11:24 6 9 mph 1017.9mb 52f 55f
11:18 7 9 mph 1017.9mb 52f 55f
11:12 5 7 mph 1017.9mb 52f 55f
11:06 3 9 mph 1017.9mb 51f 55f
11:00 7 9 mph 1017.9mb 51f 55f
10:54 6 9 mph 1018mb 51f 55f
10:48 5 7 mph 1018mb 51f 55f
10:36 6 8 mph 1017.9mb 51f 54f
10:30 6 8 mph 1017.9mb 51f 54f
10:24 5 6 mph 1017.9mb 51f 54f
10:18 3 6 mph 1017.9mb 51f 54f
10:12 3 5 mph 1017.9mb 51f 54f
10:06 6 8 mph 1017.9mb 51f 54f
10:00 6 9 mph 1017.9mb 51f 54f
9:54 6 9 mph 1017.9mb 51f 54f
9:48 6 8 mph 1018mb 51f 54f
9:36 3 6 mph 1018mb 51f 55f
9:30 1 3 mph 1018mb 51f 55f
9:24  -  1 mph 1018mb 51f 54f
9:18 2 3 mph 1018mb 51f 54f
9:12 2 3 mph 1018mb 51f 53f
9:06 3 3 mph 1018mb 51f 53f
9:00 2 5 mph 1018mb 51f 53f
8:54 2 5 mph 1018mb 51f 53f
8:36 2 3 mph 1017.9mb 51f 53f
8:30 2 5 mph 1017.8mb 51f 53f
8:24 3 6 mph 1017.8mb 51f 53f
8:18 5 6 mph 1017.8mb 51f 53f
8:12 5 6 mph 1017.7mb 51f 52f
8:06 3 5 mph 1017.7mb 51f 52f
8:00 1 5 mph 1017.7mb 51f 53f
7:54 1 3 mph 1017.7mb 51f 53f
7:48 2 3 mph 1017.6mb 51f 53f
7:36 2 3 mph 1017.5mb 51f 53f
7:30 2 3 mph 1017.4mb 51f 53f
7:24 2 3 mph 1017.5mb 51f 53f
7:18 2 5 mph 1017.5mb 51f 53f
7:12 2 3 mph 1017.4mb 51f 53f
7:06 2 5 mph 1017.4mb 51f 52f
7:00 2 5 mph 1017.4mb 51f 52f
6:54 3 6 mph 1017.4mb 51f 52f
6:48 5 6 mph 1017.4mb 51f 52f
6:36 3 5 mph 1017.4mb 51f 51f
6:30 2 5 mph 1017.4mb 51f 51f
6:24 2 3 mph 1017.4mb 51f 51f
6:18 2 3 mph 1017.3mb 51f 51f
6:12 2 3 mph 1017.3mb 51f 51f
6:06 2 3 mph 1017.2mb 51f 51f
6:00 2 2 mph 1017.2mb 51f 51f
5:54 1 3 mph 1017.2mb 51f 51f
5:48 2 5 mph 1017.3mb 51f 51f
5:36 3 5 mph 1017.2mb 51f 51f
5:30 2 3 mph 1017.2mb 51f 51f
5:24 3 3 mph 1017.1mb 51f 51f
5:18 3 6 mph 1017mb 51f 51f
5:12 3 5 mph 1016.9mb 51f 51f
5:06 3 6 mph 1017mb 51f 51f
5:00 2 5 mph 1016.9mb 51f 51f
4:54 3 5 mph 1016.8mb 51f 51f
4:48 3 3 mph 1016.8mb 51f 51f
4:36  -  1 mph 1016.7mb 51f 50f
4:30  -  1 mph 1016.7mb 51f 50f
4:24  -  0 mph 1016.7mb 51f 50f
4:18  -  0 mph 1016.7mb 51f 50f
4:12  -  1 mph 1016.7mb 51f 50f
4:06  -  1 mph 1016.7mb 51f 50f
4:00  -  3 mph 1016.6mb 51f 51f
3:54 2 3 mph 1016.6mb 51f 51f
3:48  -  1 mph 1016.5mb 51f 50f
3:36 2 2 mph 1016.4mb 51f 51f
3:30 2 2 mph 1016.3mb 51f 51f
3:24  -  2 mph 1016.3mb 51f 51f
3:18 2 2 mph 1016.2mb 51f 51f
3:12 1 3 mph 1016.3mb 51f 51f
3:06 2 3 mph 1016.2mb 51f 51f
3:00 3 5 mph 1016.2mb 51f 51f
2:54 3 5 mph 1016.1mb 51f 51f
2:48 2 3 mph 1016mb 51f 51f
2:36 2 3 mph 1015.9mb 51f 51f
2:30 3 5 mph 1015.9mb 51f 51f
2:24 3 3 mph 1015.8mb 51f 51f
2:18 3 5 mph 1015.8mb 51f 51f
2:12 3 5 mph 1015.8mb 51f 51f
2:06 2 3 mph 1015.7mb 51f 51f
2:00 2 5 mph 1015.7mb 51f 51f
1:54 2 3 mph 1015.7mb 51f 51f
1:48 3 5 mph 1015.7mb 51f 51f
1:36 3 5 mph 1015.5mb 51f 51f
1:30 3 5 mph 1015.5mb 51f 51f
1:24 3 3 mph 1015.5mb 51f 51f
1:18 3 5 mph 1015.4mb 51f 52f
1:12 2 6 mph 1015.3mb 51f 52f
1:06 5 6 mph 1015.3mb 51f 52f
1:00 3 5 mph 1015.2mb 51f 52f
12:54 2 5 mph 1015.2mb 51f 52f
12:48 3 6 mph 1015.2mb 51f 52f
12:36 6 7 mph 1015.1mb 51f 51f
12:30 3 5 mph 1015.1mb 51f 52f
12:24 5 6 mph 1015mb 51f 52f
12:18 2 5 mph 1015mb 51f 52f
12:12 3 6 mph 1014.9mb 51f 53f
12:06 2 2 mph 1014.9mb 51f 53f
12:00  -  1 mph 1014.9mb 51f 53f
Seg 06/26 11:54  -  1 mph 1014.8mb 51f 53f
11:48  -  1 mph 1014.7mb 51f 53f
11:36 1 3 mph 1014.7mb 51f 53f
11:30 1 3 mph 1014.7mb 51f 53f
11:24 3 9 mph 1014.6mb 51f 53f
11:18 7 10 mph 1014.7mb 51f 53f
11:12 8 13 mph 1014.7mb 51f 53f
11:06 9 10 mph 1014.8mb 51f 53f
11:00 9 11 mph 1014.9mb 51f 54f
10:54 8 11 mph 1015mb 51f 54f
10:48 9 11 mph 1015mb 51f 54f
10:36 6 7 mph 1015.1mb 51f 53f
10:30 6 8 mph 1015.1mb 51f 54f
10:24 7 9 mph 1015.1mb 51f 54f
10:18 7 8 mph 1014.9mb 51f 54f
10:12 6 7 mph 1014.8mb 51f 54f
10:06 8 9 mph 1014.7mb 51f 54f
10:00 5 6 mph 1014.7mb 51f 55f
9:54 3 6 mph 1014.5mb 51f 54f
9:48  -  2 mph 1014.4mb 51f 54f
9:36 1 2 mph 1014.2mb 51f 53f
9:30 1 3 mph 1014.1mb 51f 54f
9:24 3 5 mph 1014.1mb 51f 54f
9:18 5 6 mph 1014.1mb 51f 54f
9:12 5 6 mph 1014mb 51f 54f
9:06 6 6 mph 1013.9mb 51f 55f
9:00 3 6 mph 1013.8mb 51f 55f
8:54 5 6 mph 1013.7mb 51f 55f
8:36 3 3 mph 1013.4mb 51f 56f
8:30 5 6 mph 1013.2mb 51f 56f
8:24 2 2 mph 1013.2mb 51f 57f
8:18  -  1 mph 1013.1mb 51f 58f
8:12  -  3 mph 1013.1mb 51f 58f
8:06  -  2 mph 1013.1mb 51f 58f
8:00 1 3 mph 1013.1mb 51f 58f
7:54  -  3 mph 1013.1mb 51f 58f
7:48 3 3 mph 1012.9mb 51f 58f
7:36  -  2 mph 1012.9mb 51f 59f
7:30 2 3 mph 1012.8mb 51f 60f
7:24 1 2 mph 1012.9mb 51f 60f
7:18 1 2 mph 1012.8mb 51f 60f
7:12 1 2 mph 1012.8mb 51f 60f
7:06  -  1 mph 1012.8mb 51f 60f
7:00  -  1 mph 1012.7mb 51f 60f
6:54  -  3 mph 1012.7mb 51f 59f
6:48 2 5 mph 1012.7mb 51f 58f
6:36 6 7 mph 1012.7mb 51f 58f
6:30 5 7 mph 1012.7mb 51f 59f
6:24 3 6 mph 1012.7mb 51f 60f
6:18 3 5 mph 1012.7mb 51f 60f
6:12 3 7 mph 1012.7mb 51f 60f
6:06 3 6 mph 1012.6mb 51f 59f
6:00 5 6 mph 1012.7mb 51f 58f
5:54 3 6 mph 1012.6mb 51f 57f
5:48 3 6 mph 1012.6mb 51f 56f
5:36 5 7 mph 1012.7mb 51f 56f
5:30 7 8 mph 1012.7mb 51f 58f
5:24 6 7 mph 1012.7mb 51f 56f
5:18 3 6 mph 1012.7mb 51f 56f
5:12 7 9 mph 1012.8mb 51f 58f
5:06 5 6 mph 1012.7mb 51f 56f
5:00 5 6 mph 1012.8mb 51f 56f
4:54 6 9 mph 1012.9mb 51f 58f
4:48 6 8 mph 1012.9mb 51f 56f
4:36 7 8 mph 1013mb 51f 55f
4:30 8 9 mph 1013.1mb 51f 56f
4:24 8 9 mph 1013.1mb 51f 57f
4:18 9 10 mph 1013.2mb 51f 57f
4:12 10 11 mph 1013.3mb 51f 56f
4:06 10 11 mph 1013.2mb 52f 56f
4:00 9 10 mph 1013.3mb 52f 56f
3:54 7 8 mph 1013.2mb 53f 57f
3:48 2 7 mph 1013.3mb 53f 60f
3:36 8 10 mph 1013.5mb 53f 58f
3:30 8 10 mph 1013.6mb 53f 58f
3:24 7 10 mph 1013.6mb 53f 59f
3:18 9 11 mph 1013.6mb 53f 59f
3:12 8 11 mph 1013.6mb 53f 60f
3:06 7 11 mph 1013.6mb 53f 61f
3:00 8 14 mph 1013.7mb 53f 62f
2:54 13 15 mph 1013.7mb 53f 62f
2:48 9 13 mph 1013.7mb 53f 63f
2:36 5 10 mph 1013.8mb 53f 62f
2:30 6 9 mph 1013.9mb 53f 62f
2:24 6 10 mph 1013.9mb 53f 61f
2:18 6 8 mph 1013.9mb 53f 60f
2:12 7 10 mph 1014mb 53f 60f
2:06 6 10 mph 1014.1mb 53f 60f
2:00 7 10 mph 1014.1mb 53f 60f
1:54 6 13 mph 1014.2mb 53f 60f
1:48 8 13 mph 1014.2mb 53f 61f
1:36 8 14 mph 1014.2mb 53f 61f
1:30 7 11 mph 1014.2mb 53f 62f
1:24 6 9 mph 1014.3mb 53f 60f
1:18 7 9 mph 1014.3mb 53f 59f
1:12 6 8 mph 1014.3mb 53f 58f
1:06 7 10 mph 1014.3mb 53f 58f
1:00 8 10 mph 1014.3mb 53f 60f
12:54 7 10 mph 1014.4mb 52f 60f
12:48 8 13 mph 1014.3mb 52f 60f
12:36 8 11 mph 1014.5mb 52f 60f
12:30 8 14 mph 1014.5mb 52f 61f
12:24 8 11 mph 1014.5mb 52f 61f
12:18 7 10 mph 1014.5mb 53f 61f
12:12 8 13 mph 1014.4mb 53f 61f
12:06 9 13 mph 1014.3mb 53f 61f
12:00 7 11 mph 1014.1mb 52f 61f
11:54 5 10 mph 1014mb 52f 61f
11:48 7 10 mph 1014mb 52f 61f
11:36 6 13 mph 1013.9mb 52f 61f
11:30 10 16 mph 1013.9mb 52f 60f
11:24 15 17 mph 1013.9mb 52f 60f
11:18 13 15 mph 1014mb 52f 60f
11:12 10 14 mph 1014mb 52f 59f
11:06 11 15 mph 1014mb 52f 60f
11:00 10 14 mph 1014.1mb 52f 59f
10:54 5 11 mph 1014.1mb 52f 59f
10:48 13 18 mph 1014.1mb 52f 59f
10:36 5 7 mph 1013.9mb 51f 59f
10:30 5 8 mph 1013.8mb 51f 59f
10:24 6 9 mph 1013.8mb 51f 58f
10:18 8 10 mph 1013.8mb 52f 58f
10:12 7 10 mph 1013.8mb 52f 58f
10:06 7 8 mph 1013.8mb 52f 58f
10:00 8 9 mph 1013.8mb 52f 58f
9:54 5 6 mph 1013.9mb 52f 58f
9:48 7 7 mph 1013.8mb 52f 57f
9:36 5 8 mph 1013.8mb 52f 57f
9:30 3 7 mph 1013.7mb 51f 57f
9:24 5 6 mph 1013.7mb 52f 57f
9:18 2 5 mph 1013.8mb 52f 56f
9:12 2 7 mph 1013.8mb 51f 56f
9:06 2 6 mph 1013.7mb 51f 56f
9:00 3 7 mph 1013.9mb 51f 55f
8:54 6 7 mph 1013.9mb 51f 54f
8:48 6 6 mph 1013.6mb 51f 54f
8:36 2 9 mph 1013.6mb 51f 55f
8:30 8 13 mph 1013.6mb 51f 55f
8:24 6 8 mph 1013.4mb 51f 55f
8:18 5 7 mph 1013mb 51f 55f
8:12 3 6 mph 1013.3mb 51f 55f
8:06 5 6 mph 1013.3mb 51f 54f
8:00 5 6 mph 1013.2mb 51f 53f
7:54 5 6 mph 1013.2mb 51f 54f
7:48 5 6 mph 1013.2mb 51f 54f
7:36 5 6 mph 1013.2mb 51f 55f
7:30 3 3 mph 1013.1mb 51f 55f
7:24 2 2 mph 1013mb 51f 56f
7:18 2 3 mph 1013mb 51f 55f
7:12 3 6 mph 1013mb 51f 54f
7:06 7 9 mph 1012.9mb 52f 54f
7:00 8 10 mph 1012.9mb 52f 54f
6:54 6 7 mph 1013.1mb 52f 54f
6:48 6 8 mph 1013.1mb 52f 54f
6:36 3 6 mph 1012.8mb 52f 54f
6:30 3 6 mph 1012.9mb 51f 53f
6:24 5 6 mph 1012.7mb 51f 52f
6:18 2 6 mph 1012.7mb 52f 53f
6:12 5 6 mph 1012.7mb 52f 52f
6:06 7 8 mph 1012.6mb 52f 52f
6:00 6 8 mph 1012.8mb 52f 53f
5:54 6 7 mph 1012.6mb 52f 52f
5:48 5 6 mph 1012.5mb 52f 53f
5:36 5 7 mph 1012.7mb 52f 53f
5:30 3 6 mph 1012.7mb 52f 53f
5:24 7 9 mph 1012.6mb 52f 53f
5:18 6 8 mph 1012.6mb 51f 53f
5:12 5 7 mph 1012.5mb 51f 53f
5:06 7 9 mph 1012.5mb 52f 54f
5:00 3 7 mph 1012.4mb 52f 54f
4:54 2 3 mph 1012.3mb 52f 55f
4:48 3 5 mph 1012mb 52f 55f
4:36 5 8 mph 1012.1mb 52f 55f
4:30 6 7 mph 1012mb 52f 55f
4:24 3 7 mph 1011.9mb 52f 55f
4:18 6 7 mph 1011.8mb 52f 55f
4:12 6 8 mph 1011.9mb 52f 55f
4:06 5 6 mph 1011.7mb 52f 54f
4:00 6 6 mph 1011.8mb 52f 53f
3:54 6 6 mph 1011.8mb 52f 53f
3:48 2 2 mph 1011.7mb 52f 54f
3:36 3 6 mph 1012.1mb 52f 54f
3:30 5 6 mph 1012.1mb 52f 53f
3:24 3 6 mph 1011.7mb 52f 53f
3:18 2 3 mph 1011.5mb 52f 54f
3:12 3 8 mph 1011.4mb 52f 54f
3:06 6 7 mph 1011.6mb 52f 54f
3:00 3 7 mph 1011.3mb 52f 54f
2:54 3 7 mph 1011.2mb 52f 53f
2:48 5 7 mph 1011.2mb 52f 54f
2:36 2 5 mph 1011.3mb 52f 55f
2:30 3 5 mph 1011.2mb 52f 55f
2:24 5 7 mph 1011.4mb 52f 55f
2:18 6 8 mph 1011.6mb 52f 55f
2:12 5 7 mph 1011.2mb 52f 54f
2:06 3 6 mph 1011.1mb 52f 55f
2:00 3 6 mph 1011.4mb 52f 55f
1:54 6 7 mph 1011.5mb 52f 55f
1:48 5 6 mph 1011.3mb 52f 57f
1:36 5 7 mph 1011.4mb 52f 57f
1:30 2 3 mph 1011.1mb 52f 56f
1:24 2 6 mph 1010.7mb 52f 56f
1:18 3 6 mph 1010.6mb 52f 56f
1:12 3 6 mph 1010.8mb 52f 56f
1:06 3 7 mph 1010.9mb 52f 56f
1:00 3 6 mph 1010.8mb 52f 56f
12:54 2 3 mph 1010.7mb 52f 56f
12:48 2 3 mph 1010.6mb 52f 56f
12:36 2 6 mph 1010.6mb 52f 55f
12:30 6 7 mph 1010.5mb 52f 56f
12:24 5 6 mph 1010.7mb 52f 57f
12:18 2 8 mph 1010.8mb 52f 58f
12:12 3 7 mph 1011mb 52f 58f
12:06 2 5 mph 1011.1mb 52f 58f
12:00 6 9 mph 1011.2mb 52f 57f
Dom 06/25 11:54 5 7 mph 1010.8mb 52f 56f
11:48  -  2 mph 1010.3mb 52f 58f
11:36 1 3 mph 1010.4mb 51f 57f
11:30 2 5 mph 1010.3mb 51f 57f
11:24 2 3 mph 1010.4mb 51f 57f
11:18 1 2 mph 1010.7mb 51f 57f
11:12 2 3 mph 1010.7mb 51f 57f
11:06 1 2 mph 1010.6mb 51f 57f
11:00 1 3 mph 1010.7mb 51f 57f
10:54 1 5 mph 1010.6mb 51f 56f
10:48 1 5 mph 1010.6mb 51f 58f
10:36 1 2 mph 1010.3mb 51f 57f
10:30 1 3 mph 1010.5mb 51f 57f
10:24 1 5 mph 1010.6mb 51f 56f
10:18 6 8 mph 1010.7mb 51f 56f
10:12 3 5 mph 1010.5mb 51f 57f
10:06 1 3 mph 1010.2mb 51f 57f
10:00 2 14 mph 1010.4mb 51f 57f
9:54 3 6 mph 1010.3mb 51f 57f
9:36 9 11 mph 1010.4mb 51f 56f
9:30 7 9 mph 1010.2mb 51f 56f
9:24 6 7 mph 1010.1mb 51f 56f
9:18 8 9 mph 1010.2mb 51f 57f
9:12 9 10 mph 1010.1mb 51f 57f
9:06 10 10 mph 1010.2mb 51f 57f
9:00 7 9 mph 1010mb 51f 58f
8:54 8 9 mph 1010mb 51f 60f
8:36 2 7 mph 1010mb 51f 61f
8:30 7 9 mph 1010.1mb 51f 61f
8:24 7 9 mph 1010.2mb 51f 61f
8:18 8 9 mph 1010.2mb 51f 63f
8:12 5 6 mph 1010.1mb 51f 66f
8:06 3 6 mph 1010.1mb 51f 66f
8:00 3 3 mph 1010.2mb 51f 65f
7:54 1 3 mph 1010.2mb 51f 66f
7:48  -  2 mph 1010.2mb 51f 67f
7:36 3 6 mph 1010.2mb 51f 63f
7:30 5 6 mph 1010.2mb 51f 62f
7:24 5 7 mph 1010.2mb 51f 61f
7:18 5 6 mph 1010.2mb 51f 62f
7:12 5 6 mph 1010.3mb 51f 63f
7:06 1 3 mph 1010.4mb 51f 69f
7:00  -  3 mph 1010.4mb 51f 68f
6:54  -  1 mph 1010.4mb 51f 66f
6:48  -  2 mph 1010.5mb 51f 67f
6:36 2 3 mph 1010.5mb 51f 66f
6:30  -  2 mph 1010.5mb 51f 70f
6:24  -  2 mph 1010.4mb 51f 72f
6:18 2 3 mph 1010.5mb 51f 74f
6:12 3 5 mph 1010.4mb 51f 74f
6:06 3 5 mph 1010.5mb 51f 73f
6:00 5 5 mph 1010.6mb 51f 71f
5:54  -  3 mph 1010.7mb 51f 76f
5:48 3 5 mph 1010.8mb 51f 75f
5:36 2 6 mph 1010.9mb 51f -
5:30 5 5 mph 1010.9mb 51f -
5:24 1 2 mph 1010.8mb 51f -
5:18 1 5 mph 1010.9mb 51f -
5:12 3 5 mph 1010.9mb 51f -
5:06  -  2 mph 1010.9mb 51f -
5:00  -  3 mph 1010.9mb 51f -
4:54 2 3 mph 1011mb 51f -
4:48 2 5 mph 1011mb 51f -
4:36 3 5 mph 1011.2mb 51f 68f
4:30 3 5 mph 1011.2mb 51f 67f
4:24 2 3 mph 1011.2mb 51f 68f
4:18 2 5 mph 1011.2mb 51f 69f
4:12 1 3 mph 1011.2mb 51f 71f
4:06 1 5 mph 1011.2mb 51f 73f
4:00 1 3 mph 1011.2mb 51f 74f
3:54 1 2 mph 1011.3mb 51f 76f
3:48 1 3 mph 1011.3mb 51f 77f
3:36  -  2 mph 1011.5mb 51f 77f
3:30 1 3 mph 1011.5mb 52f 77f
3:24 1 2 mph 1011.6mb 52f 77f
3:18 1 5 mph 1011.7mb 52f 76f
3:12 1 3 mph 1011.7mb 52f 76f
3:06 3 5 mph 1011.7mb 52f 76f
3:00 2 5 mph 1011.7mb 52f 76f
2:54 1 3 mph 1011.7mb 52f 77f
2:48 2 5 mph 1011.8mb 52f 77f
2:36  -  5 mph 1011.8mb 52f 76f
2:30 2 5 mph 1011.9mb 52f 76f
2:24 2 3 mph 1011.9mb 52f 76f
2:18 2 2 mph 1012.1mb 53f 76f
2:12 1 5 mph 1012.1mb 53f 76f
2:06 1 5 mph 1012.1mb 53f 76f
2:00 3 6 mph 1012.2mb 53f 76f
1:54 2 6 mph 1012.3mb 53f 77f
1:48 1 3 mph 1012.4mb 53f 76f
1:36  -  5 mph 1012.4mb 53f 76f
1:30 2 6 mph 1012.4mb 53f 76f
1:24 3 6 mph 1012.4mb 53f 76f
1:18 5 6 mph 1012.5mb 53f 76f
1:12 3 8 mph 1012.5mb 52f 76f
1:06 2 6 mph 1012.7mb 52f 76f
1:00 5 8 mph 1012.7mb 52f 74f
12:54 3 9 mph 1012.8mb 52f 75f
12:48 5 9 mph 1012.8mb 52f 76f
12:36 5 9 mph 1012.9mb 52f 75f
12:30 5 8 mph 1013mb 52f 75f
12:24 5 9 mph 1013.1mb 52f 75f
12:18 3 6 mph 1013.1mb 52f 75f
12:12 2 7 mph 1013.2mb 52f 76f
12:06 3 8 mph 1013.2mb 52f 75f
12:00 5 9 mph 1013.3mb 52f 76f
11:54 5 9 mph 1013.3mb 52f 75f
11:48 5 9 mph 1013.4mb 52f 74f
11:36 3 8 mph 1013.5mb 53f 74f
11:30 5 8 mph 1013.4mb 53f 74f
11:24 3 9 mph 1013.4mb 53f 75f
11:18 3 8 mph 1013.3mb 53f 76f
11:12 6 9 mph 1013.3mb 53f 75f
11:06 6 11 mph 1013.4mb 52f 74f
11:00 6 8 mph 1013.5mb 53f 74f
10:54 3 7 mph 1013.6mb 53f 75f
10:36 2 6 mph 1013.7mb 53f 74f
10:30 2 8 mph 1013.7mb 53f 74f
10:24 2 5 mph 1013.7mb 52f 74f
10:18 5 8 mph 1013.7mb 52f 74f
10:12 1 6 mph 1013.8mb 52f 75f
10:06 2 6 mph 1013.9mb 52f 74f
10:00 2 6 mph 1013.9mb 52f 73f
9:54 2 6 mph 1014mb 52f 73f
9:48 2 6 mph 1014mb 52f 74f
9:36 2 6 mph 1014.1mb 52f 73f
9:30 2 6 mph 1014.1mb 52f 73f
9:24 2 5 mph 1014.1mb 52f 73f
9:18 3 6 mph 1014.2mb 52f 72f
9:12 3 8 mph 1014.2mb 52f 72f
9:06 3 6 mph 1014.3mb 52f 72f
9:00 2 7 mph 1014.3mb 52f 71f
8:54 2 5 mph 1014.4mb 52f 71f
8:48 1 3 mph 1014.4mb 52f 71f
8:36  -  3 mph 1014.5mb 52f 72f
8:30  -  3 mph 1014.4mb 52f 71f
8:24 2 6 mph 1014.4mb 52f 71f
8:18 2 5 mph 1014.5mb 52f 70f
8:12 1 3 mph 1014.5mb 52f 69f
8:06  -  3 mph 1014.5mb 52f 69f
8:00 1 3 mph 1014.5mb 52f 67f
7:54 1 5 mph 1014.6mb 52f 65f
7:48 1 3 mph 1014.5mb 52f 65f
7:36 2 5 mph 1014.5mb 52f 62f
7:30 1 3 mph 1014.5mb 52f 61f
7:24 2 3 mph 1014.6mb 52f 59f
7:18 3 5 mph 1014.6mb 52f 58f
7:12 2 5 mph 1014.6mb 52f 58f
7:06 3 5 mph 1014.7mb 52f 58f
7:00 3 5 mph 1014.7mb 52f 57f
6:54 2 3 mph 1014.7mb 52f 58f
6:48 1 3 mph 1014.7mb 52f 61f
6:36  -  2 mph 1014.8mb 52f 61f
6:30 1 3 mph 1014.8mb 52f 59f
6:24 2 3 mph 1014.7mb 52f 58f
6:18 2 2 mph 1014.7mb 52f 58f
6:12  -  2 mph 1014.7mb 52f 58f
6:06 1 1 mph 1014.7mb 52f 59f
6:00  -  2 mph 1014.7mb 52f 60f
5:54 2 3 mph 1014.8mb 51f 58f
5:48 2 3 mph 1014.8mb 51f 57f
5:36 2 3 mph 1014.7mb 51f 56f
5:30 1 2 mph 1014.6mb 52f 56f
5:24  -  2 mph 1014.6mb 52f 56f
5:18 1 2 mph 1014.7mb 52f 56f
5:12  -  2 mph 1014.7mb 52f 56f
5:06 1 2 mph 1014.8mb 52f 56f
5:00  -  2 mph 1014.8mb 52f 56f
4:54  -  1 mph 1014.8mb 52f 55f
4:48  -  2 mph 1014.8mb 52f 55f
4:36 1 2 mph 1014.7mb 52f 55f
4:30  -  1 mph 1014.7mb 52f 56f
4:24  -  1 mph 1014.7mb 52f 56f
4:18  -  1 mph 1014.7mb 52f 56f
4:12  -  3 mph 1014.7mb 52f 55f
4:06 1 2 mph 1014.7mb 52f 56f
4:00  -  0 mph 1014.7mb 52f 57f
3:36  -  2 mph 1014.8mb 52f 57f
3:30  -  1 mph 1014.8mb 52f 57f
3:24  -  1 mph 1014.8mb 52f 57f
3:18  -  2 mph 1014.8mb 52f 58f
3:12  -  2 mph 1014.9mb 52f 58f
3:06  -  2 mph 1014.9mb 52f 58f
3:00 2 2 mph 1014.9mb 52f 57f
2:36  -  1 mph 1015mb 52f 57f
2:30  -  0 mph 1015mb 52f 56f
2:24  -  0 mph 1015mb 52f 57f
2:18  -  1 mph 1015.1mb 52f 58f
2:12  -  1 mph 1015.1mb 52f 58f
2:06  -  0 mph 1015.1mb 52f 59f
2:00  -  1 mph 1015.1mb 52f 60f
1:54 2 2 mph 1015.2mb 52f 59f
1:48 2 2 mph 1015.2mb 52f 58f
1:36  -  1 mph 1015.3mb 52f 58f
1:30 1 2 mph 1015.3mb 52f 58f
1:24  -  2 mph 1015.3mb 52f 60f
1:18 2 2 mph 1015.3mb 52f 59f
1:12 2 3 mph 1015.3mb 52f 58f
1:06 1 2 mph 1015.3mb 52f 59f
1:00  -  0 mph 1015.2mb 52f 60f
12:54  -  0 mph 1015.3mb 52f 60f
12:48  -  1 mph 1015.3mb 52f 60f